sensor_id;sensor_type;location;lat;lon;timestamp;temperature;humidity
52435;DHT22;38354;52.892;6.148;2023-03-01T04:00:39;-1.40;99.90
52435;DHT22;38354;52.892;6.148;2023-03-01T04:03:05;-1.40;99.90
52435;DHT22;38354;52.892;6.148;2023-03-01T04:05:31;-1.40;99.90
52435;DHT22;38354;52.892;6.148;2023-03-01T04:07:57;-1.50;99.90
52435;DHT22;38354;52.892;6.148;2023-03-01T04:10:37;-1.40;99.90
52435;DHT22;38354;52.892;6.148;2023-03-01T04:13:04;-1.50;99.90
52435;DHT22;38354;52.892;6.148;2023-03-01T04:15:31;-1.50;99.90
52435;DHT22;38354;52.892;6.148;2023-03-01T04:17:58;-1.60;99.90
52435;DHT22;38354;52.892;6.148;2023-03-01T04:20:27;-1.60;99.90
52435;DHT22;38354;52.892;6.148;2023-03-01T04:23:02;-1.60;99.90
52435;DHT22;38354;52.892;6.148;2023-03-01T04:25:58;-1.70;99.90
52435;DHT22;38354;52.892;6.148;2023-03-01T04:28:30;-1.70;99.90
52435;DHT22;38354;52.892;6.148;2023-03-01T04:33:44;-1.70;99.90
52435;DHT22;38354;52.892;6.148;2023-03-01T04:36:12;-1.80;99.90
52435;DHT22;38354;52.892;6.148;2023-03-01T04:38:38;-1.80;99.90
52435;DHT22;38354;52.892;6.148;2023-03-01T04:41:06;-1.90;99.90
52435;DHT22;38354;52.892;6.148;2023-03-01T04:43:32;-1.90;99.90
52435;DHT22;38354;52.892;6.148;2023-03-01T04:46:07;-2.00;99.90
52435;DHT22;38354;52.892;6.148;2023-03-01T04:48:35;-2.00;99.90
52435;DHT22;38354;52.892;6.148;2023-03-01T04:51:01;-2.10;99.90
52435;DHT22;38354;52.892;6.148;2023-03-01T04:53:27;-2.00;99.90
52435;DHT22;38354;52.892;6.148;2023-03-01T04:55:54;-2.00;99.90
52435;DHT22;38354;52.892;6.148;2023-03-01T04:58:25;-2.00;99.90
52435;DHT22;38354;52.892;6.148;2023-03-01T05:00:52;-2.00;99.90
52435;DHT22;38354;52.892;6.148;2023-03-01T05:03:18;-1.90;99.90
52435;DHT22;38354;52.892;6.148;2023-03-01T05:05:46;-1.90;99.90
52435;DHT22;38354;52.892;6.148;2023-03-01T05:08:12;-1.90;99.90
52435;DHT22;38354;52.892;6.148;2023-03-01T05:10:44;-1.90;99.90
52435;DHT22;38354;52.892;6.148;2023-03-01T05:13:12;-1.90;99.90
52435;DHT22;38354;52.892;6.148;2023-03-01T05:15:39;-1.90;99.90
52435;DHT22;38354;52.892;6.148;2023-03-01T05:18:05;-1.90;99.90
52435;DHT22;38354;52.892;6.148;2023-03-01T05:20:37;-2.00;99.90
52435;DHT22;38354;52.892;6.148;2023-03-01T05:23:04;-2.00;99.90
52435;DHT22;38354;52.892;6.148;2023-03-01T05:25:32;-2.00;99.90
52435;DHT22;38354;52.892;6.148;2023-03-01T05:28:02;-2.00;99.90
52435;DHT22;38354;52.892;6.148;2023-03-01T05:30:34;-2.00;99.90
52435;DHT22;38354;52.892;6.148;2023-03-01T05:33:00;-2.10;99.90
52435;DHT22;38354;52.892;6.148;2023-03-01T05:35:26;-2.20;99.90
52435;DHT22;38354;52.892;6.148;2023-03-01T05:37:52;-2.20;99.90
52435;DHT22;38354;52.892;6.148;2023-03-01T05:40:20;-2.20;99.90
52435;DHT22;38354;52.892;6.148;2023-03-01T05:42:48;-2.20;99.90
52435;DHT22;38354;52.892;6.148;2023-03-01T05:45:15;-2.10;99.90
52435;DHT22;38354;52.892;6.148;2023-03-01T05:47:43;-2.10;99.90
52435;DHT22;38354;52.892;6.148;2023-03-01T05:50:18;-2.10;99.90
52435;DHT22;38354;52.892;6.148;2023-03-01T05:52:48;-2.10;99.90
52435;DHT22;38354;52.892;6.148;2023-03-01T05:55:19;-2.10;99.90
52435;DHT22;38354;52.892;6.148;2023-03-01T05:57:45;-2.10;99.90
52435;DHT22;38354;52.892;6.148;2023-03-01T06:00:12;-2.10;99.90
52435;DHT22;38354;52.892;6.148;2023-03-01T06:02:39;-2.10;99.90
52435;DHT22;38354;52.892;6.148;2023-03-01T06:05:06;-2.10;99.90
52435;DHT22;38354;52.892;6.148;2023-03-01T06:07:32;-2.20;99.90
52435;DHT22;38354;52.892;6.148;2023-03-01T06:09:58;-2.10;99.90
52435;DHT22;38354;52.892;6.148;2023-03-01T06:12:24;-2.10;99.90
52435;DHT22;38354;52.892;6.148;2023-03-01T06:14:50;-2.20;99.90
52435;DHT22;38354;52.892;6.148;2023-03-01T06:17:15;-2.20;99.90
52435;DHT22;38354;52.892;6.148;2023-03-01T06:19:41;-2.20;99.90
52435;DHT22;38354;52.892;6.148;2023-03-01T06:22:07;-2.20;99.90
52435;DHT22;38354;52.892;6.148;2023-03-01T06:24:33;-2.10;99.90
52435;DHT22;38354;52.892;6.148;2023-03-01T06:27:02;-2.10;99.90
52435;DHT22;38354;52.892;6.148;2023-03-01T06:29:28;-2.10;99.90
52435;DHT22;38354;52.892;6.148;2023-03-01T06:31:53;-2.20;99.90
52435;DHT22;38354;52.892;6.148;2023-03-01T06:34:19;-2.20;99.90
52435;DHT22;38354;52.892;6.148;2023-03-01T06:36:47;-2.10;99.90
52435;DHT22;38354;52.892;6.148;2023-03-01T06:39:12;-2.10;99.90
52435;DHT22;38354;52.892;6.148;2023-03-01T06:41:38;-2.10;99.90
52435;DHT22;38354;52.892;6.148;2023-03-01T06:44:04;-2.10;99.90
52435;DHT22;38354;52.892;6.148;2023-03-01T06:46:29;-2.10;99.90
52435;DHT22;38354;52.892;6.148;2023-03-01T06:48:55;-2.10;99.90
52435;DHT22;38354;52.892;6.148;2023-03-01T06:51:21;-2.20;99.90
52435;DHT22;38354;52.892;6.148;2023-03-01T06:53:47;-2.20;99.90
52435;DHT22;38354;52.892;6.148;2023-03-01T06:56:12;-2.20;99.90
52435;DHT22;38354;52.892;6.148;2023-03-01T06:58:38;-2.20;99.90
52435;DHT22;38354;52.892;6.148;2023-03-01T07:01:07;-2.10;99.90
52435;DHT22;38354;52.892;6.148;2023-03-01T07:03:33;-2.10;99.90
52435;DHT22;38354;52.892;6.148;2023-03-01T07:05:59;-2.10;99.90
52435;DHT22;38354;52.892;6.148;2023-03-01T07:08:25;-2.10;99.90
52435;DHT22;38354;52.892;6.148;2023-03-01T07:10:57;-2.10;99.90
52435;DHT22;38354;52.892;6.148;2023-03-01T07:13:23;-2.10;99.90
52435;DHT22;38354;52.892;6.148;2023-03-01T07:15:49;-2.00;99.90
52435;DHT22;38354;52.892;6.148;2023-03-01T07:18:14;-2.00;99.90
52435;DHT22;38354;52.892;6.148;2023-03-01T07:20:40;-1.90;99.90
52435;DHT22;38354;52.892;6.148;2023-03-01T07:23:06;-1.90;99.90
52435;DHT22;38354;52.892;6.148;2023-03-01T07:25:32;-1.80;99.90
52435;DHT22;38354;52.892;6.148;2023-03-01T07:27:58;-1.80;99.90
52435;DHT22;38354;52.892;6.148;2023-03-01T07:30:24;-1.80;99.90
52435;DHT22;38354;52.892;6.148;2023-03-01T07:32:55;-1.70;99.90
52435;DHT22;38354;52.892;6.148;2023-03-01T07:35:21;-1.70;99.90
52435;DHT22;38354;52.892;6.148;2023-03-01T07:37:47;-1.60;99.90
52435;DHT22;38354;52.892;6.148;2023-03-01T07:40:13;-1.60;99.90
52435;DHT22;38354;52.892;6.148;2023-03-01T07:42:38;-1.50;99.90
52435;DHT22;38354;52.892;6.148;2023-03-01T07:45:06;-1.50;99.90
52435;DHT22;38354;52.892;6.148;2023-03-01T07:47:32;-1.40;99.90
52435;DHT22;38354;52.892;6.148;2023-03-01T07:49:57;-1.30;99.90
52435;DHT22;38354;52.892;6.148;2023-03-01T07:52:23;-1.30;99.90
52435;DHT22;38354;52.892;6.148;2023-03-01T07:54:49;-1.20;99.90
52435;DHT22;38354;52.892;6.148;2023-03-01T07:57:14;-1.10;99.90
52435;DHT22;38354;52.892;6.148;2023-03-01T07:59:40;-1.10;99.90
52435;DHT22;38354;52.892;6.148;2023-03-01T08:02:06;-1.10;99.90
52435;DHT22;38354;52.892;6.148;2023-03-01T08:04:33;-1.00;99.90
52435;DHT22;38354;52.892;6.148;2023-03-01T08:06:58;-1.00;99.90
52435;DHT22;38354;52.892;6.148;2023-03-01T08:09:24;-0.90;99.90
52435;DHT22;38354;52.892;6.148;2023-03-01T08:11:50;-0.90;99.90
52435;DHT22;38354;52.892;6.148;2023-03-01T08:14:16;-0.80;99.90
52435;DHT22;38354;52.892;6.148;2023-03-01T08:16:42;-0.80;99.90
52435;DHT22;38354;52.892;6.148;2023-03-01T08:19:09;-0.70;99.90
52435;DHT22;38354;52.892;6.148;2023-03-01T08:21:36;-0.60;99.90
52435;DHT22;38354;52.892;6.148;2023-03-01T08:24:05;-0.50;99.90
52435;DHT22;38354;52.892;6.148;2023-03-01T08:26:32;-0.40;99.90
52435;DHT22;38354;52.892;6.148;2023-03-01T08:28:59;-0.40;99.90
52435;DHT22;38354;52.892;6.148;2023-03-01T08:31:29;-0.30;99.90
52435;DHT22;38354;52.892;6.148;2023-03-01T08:33:58;-0.20;99.90
52435;DHT22;38354;52.892;6.148;2023-03-01T08:36:29;-0.10;99.90
52435;DHT22;38354;52.892;6.148;2023-03-01T08:38:55;0.00;99.90
52435;DHT22;38354;52.892;6.148;2023-03-01T08:41:21;0.00;99.90
52435;DHT22;38354;52.892;6.148;2023-03-01T08:43:47;0.10;99.90
52435;DHT22;38354;52.892;6.148;2023-03-01T08:46:13;0.30;99.90
52435;DHT22;38354;52.892;6.148;2023-03-01T08:48:38;0.40;99.90
52435;DHT22;38354;52.892;6.148;2023-03-01T08:51:09;0.50;99.90
52435;DHT22;38354;52.892;6.148;2023-03-01T08:53:35;0.60;99.90
52435;DHT22;38354;52.892;6.148;2023-03-01T08:56:01;0.70;99.90
52435;DHT22;38354;52.892;6.148;2023-03-01T08:58:28;0.90;99.90
52435;DHT22;38354;52.892;6.148;2023-03-01T09:00:54;1.00;99.90
52435;DHT22;38354;52.892;6.148;2023-03-01T09:03:22;1.10;99.90
52435;DHT22;38354;52.892;6.148;2023-03-01T09:05:47;1.20;99.90
52435;DHT22;38354;52.892;6.148;2023-03-01T09:08:22;1.40;99.90
52435;DHT22;38354;52.892;6.148;2023-03-01T09:10:47;2.00;99.90
52435;DHT22;38354;52.892;6.148;2023-03-01T09:13:17;3.20;99.90
52435;DHT22;38354;52.892;6.148;2023-03-01T09:15:42;4.20;99.90
52435;DHT22;38354;52.892;6.148;2023-03-01T09:18:08;5.20;99.90
52435;DHT22;38354;52.892;6.148;2023-03-01T09:20:36;5.90;99.90
52435;DHT22;38354;52.892;6.148;2023-03-01T09:23:02;6.40;99.90
52435;DHT22;38354;52.892;6.148;2023-03-01T09:25:28;6.60;99.90
52435;DHT22;38354;52.892;6.148;2023-03-01T09:27:54;6.60;99.90
52435;DHT22;38354;52.892;6.148;2023-03-01T09:30:20;6.40;99.90
52435;DHT22;38354;52.892;6.148;2023-03-01T09:32:46;6.20;99.90
52435;DHT22;38354;52.892;6.148;2023-03-01T09:35:12;6.00;99.90
52435;DHT22;38354;52.892;6.148;2023-03-01T09:37:38;5.80;99.90
52435;DHT22;38354;52.892;6.148;2023-03-01T09:40:14;5.60;99.90
52435;DHT22;38354;52.892;6.148;2023-03-01T09:42:48;5.50;99.90
52435;DHT22;38354;52.892;6.148;2023-03-01T09:45:34;5.20;99.90
52435;DHT22;38354;52.892;6.148;2023-03-01T09:48:02;5.00;99.90
52435;DHT22;38354;52.892;6.148;2023-03-01T09:50:34;4.90;99.90
52435;DHT22;38354;52.892;6.148;2023-03-01T09:53:05;4.90;99.90
52435;DHT22;38354;52.892;6.148;2023-03-01T10:01:00;5.00;99.90
52435;DHT22;38354;52.892;6.148;2023-03-01T10:03:53;5.10;99.90
52435;DHT22;38354;52.892;6.148;2023-03-01T10:06:22;5.30;99.90
52435;DHT22;38354;52.892;6.148;2023-03-01T10:09:07;5.40;99.90
52435;DHT22;38354;52.892;6.148;2023-03-01T10:11:38;5.70;99.90
52435;DHT22;38354;52.892;6.148;2023-03-01T10:14:32;5.80;99.90
52435;DHT22;38354;52.892;6.148;2023-03-01T10:17:24;5.90;99.90
52435;DHT22;38354;52.892;6.148;2023-03-01T10:19:50;6.10;99.90
52435;DHT22;38354;52.892;6.148;2023-03-01T10:22:18;6.30;99.90
52435;DHT22;38354;52.892;6.148;2023-03-01T10:24:46;6.40;99.90
52435;DHT22;38354;52.892;6.148;2023-03-01T10:27:29;6.60;99.90
52435;DHT22;38354;52.892;6.148;2023-03-01T10:30:16;6.70;99.90
52435;DHT22;38354;52.892;6.148;2023-03-01T10:32:44;6.90;99.90
52435;DHT22;38354;52.892;6.148;2023-03-01T10:35:19;7.00;99.90
52435;DHT22;38354;52.892;6.148;2023-03-01T10:40:29;7.30;99.90
52435;DHT22;38354;52.892;6.148;2023-03-01T10:42:58;7.40;99.90
52435;DHT22;38354;52.892;6.148;2023-03-01T10:48:18;7.60;99.90
52435;DHT22;38354;52.892;6.148;2023-03-01T10:51:05;7.70;99.90
52435;DHT22;38354;52.892;6.148;2023-03-01T10:53:42;7.90;99.90
52435;DHT22;38354;52.892;6.148;2023-03-01T10:56:11;8.00;99.90
52435;DHT22;38354;52.892;6.148;2023-03-01T10:59:01;8.10;99.90
52435;DHT22;38354;52.892;6.148;2023-03-01T11:01:30;8.20;99.90
52435;DHT22;38354;52.892;6.148;2023-03-01T11:06:33;8.40;99.90
52435;DHT22;38354;52.892;6.148;2023-03-01T11:09:21;8.60;99.90
52435;DHT22;38354;52.892;6.148;2023-03-01T11:11:56;8.60;99.90
52435;DHT22;38354;52.892;6.148;2023-03-01T11:14:27;8.70;99.90
52435;DHT22;38354;52.892;6.148;2023-03-01T11:17:11;8.90;99.90
52435;DHT22;38354;52.892;6.148;2023-03-01T11:19:38;9.00;99.90
52435;DHT22;38354;52.892;6.148;2023-03-01T11:22:18;9.10;99.90
52435;DHT22;38354;52.892;6.148;2023-03-01T11:24:47;9.10;99.90
52435;DHT22;38354;52.892;6.148;2023-03-01T11:27:18;9.20;99.90
52435;DHT22;38354;52.892;6.148;2023-03-01T11:30:00;9.30;99.90
52435;DHT22;38354;52.892;6.148;2023-03-01T11:32:32;9.50;99.90
52435;DHT22;38354;52.892;6.148;2023-03-01T11:35:15;9.60;99.90
52435;DHT22;38354;52.892;6.148;2023-03-01T11:40:27;9.80;99.90
52435;DHT22;38354;52.892;6.148;2023-03-01T11:49:04;10.10;99.90
52435;DHT22;38354;52.892;6.148;2023-03-01T11:51:42;10.30;99.90
52435;DHT22;38354;52.892;6.148;2023-03-01T12:08:08;10.60;99.90
52435;DHT22;38354;52.892;6.148;2023-03-01T12:10:57;10.70;99.90
52435;DHT22;38354;52.892;6.148;2023-03-01T12:19:40;10.90;99.90
52435;DHT22;38354;52.892;6.148;2023-03-01T12:22:04;11.00;99.90
52435;DHT22;38354;52.892;6.148;2023-03-01T12:33:29;11.60;99.90
52435;DHT22;38354;52.892;6.148;2023-03-01T12:38:50;12.00;99.90
52435;DHT22;38354;52.892;6.148;2023-03-01T12:41:40;12.00;99.90
52435;DHT22;38354;52.892;6.148;2023-03-01T12:47:02;12.00;99.90
52435;DHT22;38354;52.892;6.148;2023-03-01T12:49:36;12.00;99.90
52435;DHT22;38354;52.892;6.148;2023-03-01T12:54:37;12.00;99.90
52435;DHT22;38354;52.892;6.148;2023-03-01T12:57:17;12.10;99.90
52435;DHT22;38354;52.892;6.148;2023-03-01T13:08:29;12.40;99.90
52435;DHT22;38354;52.892;6.148;2023-03-01T13:11:06;12.40;99.90
52435;DHT22;38354;52.892;6.148;2023-03-01T13:13:37;12.40;99.90
52435;DHT22;38354;52.892;6.148;2023-03-01T13:19:27;12.60;99.90
52435;DHT22;38354;52.892;6.148;2023-03-01T13:21:55;12.70;99.90
52435;DHT22;38354;52.892;6.148;2023-03-01T13:24:26;12.80;99.90
52435;DHT22;38354;52.892;6.148;2023-03-01T13:29:54;12.60;99.90
52435;DHT22;38354;52.892;6.148;2023-03-01T13:32:37;12.70;99.90
52435;DHT22;38354;52.892;6.148;2023-03-01T13:37:42;12.80;99.90
52435;DHT22;38354;52.892;6.148;2023-03-01T13:42:53;13.00;99.90
52435;DHT22;38354;52.892;6.148;2023-03-01T13:48:10;12.80;99.90
52435;DHT22;38354;52.892;6.148;2023-03-01T13:50:45;12.90;99.90
52435;DHT22;38354;52.892;6.148;2023-03-01T13:53:17;13.00;99.90
52435;DHT22;38354;52.892;6.148;2023-03-01T13:55:58;12.90;99.90
52435;DHT22;38354;52.892;6.148;2023-03-01T13:58:31;12.90;99.90
52435;DHT22;38354;52.892;6.148;2023-03-01T14:01:07;12.90;99.90
52435;DHT22;38354;52.892;6.148;2023-03-01T14:03:41;12.90;99.90
52435;DHT22;38354;52.892;6.148;2023-03-01T14:06:15;12.80;99.90
52435;DHT22;38354;52.892;6.148;2023-03-01T14:08:44;12.70;99.90
52435;DHT22;38354;52.892;6.148;2023-03-01T14:19:29;12.50;99.90
52435;DHT22;38354;52.892;6.148;2023-03-01T14:24:47;12.40;99.90
52435;DHT22;38354;52.892;6.148;2023-03-01T14:27:14;12.50;99.90
52435;DHT22;38354;52.892;6.148;2023-03-01T14:29:40;12.50;99.90
52435;DHT22;38354;52.892;6.148;2023-03-01T14:32:24;12.60;99.90
52435;DHT22;38354;52.892;6.148;2023-03-01T14:34:50;12.60;99.90
52435;DHT22;38354;52.892;6.148;2023-03-01T14:37:29;12.60;99.90
52435;DHT22;38354;52.892;6.148;2023-03-01T14:39:57;12.50;99.90
52435;DHT22;38354;52.892;6.148;2023-03-01T14:42:25;12.50;99.90
52435;DHT22;38354;52.892;6.148;2023-03-01T14:44:54;12.50;99.90
52435;DHT22;38354;52.892;6.148;2023-03-01T14:47:33;12.50;99.90
52435;DHT22;38354;52.892;6.148;2023-03-01T14:50:07;12.50;99.90
52435;DHT22;38354;52.892;6.148;2023-03-01T14:52:39;12.40;99.90
52435;DHT22;38354;52.892;6.148;2023-03-01T14:55:13;12.30;99.90
52435;DHT22;38354;52.892;6.148;2023-03-01T14:57:44;12.30;99.90
52435;DHT22;38354;52.892;6.148;2023-03-01T15:00:22;12.20;99.90
52435;DHT22;38354;52.892;6.148;2023-03-01T15:02:52;12.30;99.90
52435;DHT22;38354;52.892;6.148;2023-03-01T15:05:29;12.20;99.90
52435;DHT22;38354;52.892;6.148;2023-03-01T15:07:56;12.20;99.90
52435;DHT22;38354;52.892;6.148;2023-03-01T15:10:26;12.20;99.90
52435;DHT22;38354;52.892;6.148;2023-03-01T15:12:52;12.30;99.90
52435;DHT22;38354;52.892;6.148;2023-03-01T15:15:35;12.30;99.90
52435;DHT22;38354;52.892;6.148;2023-03-01T15:18:19;12.40;99.90
52435;DHT22;38354;52.892;6.148;2023-03-01T15:20:47;12.40;99.90
52435;DHT22;38354;52.892;6.148;2023-03-01T15:23:28;12.40;99.90
52435;DHT22;38354;52.892;6.148;2023-03-01T15:25:55;12.50;99.90
52435;DHT22;38354;52.892;6.148;2023-03-01T15:28:30;12.60;99.90
52435;DHT22;38354;52.892;6.148;2023-03-01T15:31:01;12.60;99.90
52435;DHT22;38354;52.892;6.148;2023-03-01T15:33:31;12.60;99.90
52435;DHT22;38354;52.892;6.148;2023-03-01T15:35:59;12.60;99.90
52435;DHT22;38354;52.892;6.148;2023-03-01T15:38:29;12.80;99.90
52435;DHT22;38354;52.892;6.148;2023-03-01T15:40:57;12.90;99.90
52435;DHT22;38354;52.892;6.148;2023-03-01T15:43:39;12.90;99.90
52435;DHT22;38354;52.892;6.148;2023-03-01T15:46:15;12.80;99.90
52435;DHT22;38354;52.892;6.148;2023-03-01T15:48:45;12.80;99.90
52435;DHT22;38354;52.892;6.148;2023-03-01T15:51:13;12.70;99.90
52435;DHT22;38354;52.892;6.148;2023-03-01T15:53:40;12.50;99.90
52435;DHT22;38354;52.892;6.148;2023-03-01T15:56:06;12.30;99.90
52435;DHT22;38354;52.892;6.148;2023-03-01T15:58:32;12.10;99.90
52435;DHT22;38354;52.892;6.148;2023-03-01T16:00:58;11.90;99.90
52435;DHT22;38354;52.892;6.148;2023-03-01T16:03:24;11.80;99.90
52435;DHT22;38354;52.892;6.148;2023-03-01T16:05:50;11.90;99.90
52435;DHT22;38354;52.892;6.148;2023-03-01T16:08:18;12.20;99.90
52435;DHT22;38354;52.892;6.148;2023-03-01T16:10:44;12.40;99.90
52435;DHT22;38354;52.892;6.148;2023-03-01T16:13:11;12.50;99.90
52435;DHT22;38354;52.892;6.148;2023-03-01T16:15:37;12.50;99.90
52435;DHT22;38354;52.892;6.148;2023-03-01T16:18:04;12.40;99.90
52435;DHT22;38354;52.892;6.148;2023-03-01T16:20:35;12.20;99.90
52435;DHT22;38354;52.892;6.148;2023-03-01T16:23:02;12.00;99.90
52435;DHT22;38354;52.892;6.148;2023-03-01T16:25:29;11.80;99.90
52435;DHT22;38354;52.892;6.148;2023-03-01T16:27:55;11.60;99.90
52435;DHT22;38354;52.892;6.148;2023-03-01T16:30:22;11.50;99.90
52435;DHT22;38354;52.892;6.148;2023-03-01T16:32:48;11.40;99.90
52435;DHT22;38354;52.892;6.148;2023-03-01T16:35:17;11.10;99.90
52435;DHT22;38354;52.892;6.148;2023-03-01T16:37:43;10.80;99.90
52435;DHT22;38354;52.892;6.148;2023-03-01T16:40:21;10.60;99.90
52435;DHT22;38354;52.892;6.148;2023-03-01T16:42:49;10.20;99.90
52435;DHT22;38354;52.892;6.148;2023-03-01T16:45:15;9.90;99.90
52435;DHT22;38354;52.892;6.148;2023-03-01T16:47:41;9.70;99.90
52435;DHT22;38354;52.892;6.148;2023-03-01T16:50:07;9.50;99.90
52435;DHT22;38354;52.892;6.148;2023-03-01T16:52:34;9.40;99.90
52435;DHT22;38354;52.892;6.148;2023-03-01T16:55:00;9.30;99.90
52435;DHT22;38354;52.892;6.148;2023-03-01T16:57:25;9.10;99.90
52435;DHT22;38354;52.892;6.148;2023-03-01T16:59:52;8.90;99.90
52435;DHT22;38354;52.892;6.148;2023-03-01T17:02:21;8.70;99.90
52435;DHT22;38354;52.892;6.148;2023-03-01T17:04:54;8.60;99.90
52435;DHT22;38354;52.892;6.148;2023-03-01T17:07:21;8.50;99.90
52435;DHT22;38354;52.892;6.148;2023-03-01T17:09:46;8.40;99.90
52435;DHT22;38354;52.892;6.148;2023-03-01T17:12:13;8.20;99.90
52435;DHT22;38354;52.892;6.148;2023-03-01T17:14:39;8.10;99.90
52435;DHT22;38354;52.892;6.148;2023-03-01T17:17:07;8.00;99.90
52435;DHT22;38354;52.892;6.148;2023-03-01T17:19:33;7.90;99.90
52435;DHT22;38354;52.892;6.148;2023-03-01T17:22:01;7.80;99.90
52435;DHT22;38354;52.892;6.148;2023-03-01T17:24:27;7.70;99.90
52435;DHT22;38354;52.892;6.148;2023-03-01T17:26:54;7.60;99.90
52435;DHT22;38354;52.892;6.148;2023-03-01T17:29:20;7.50;99.90
52435;DHT22;38354;52.892;6.148;2023-03-01T17:31:46;7.50;99.90
52435;DHT22;38354;52.892;6.148;2023-03-01T17:34:11;7.40;99.90
52435;DHT22;38354;52.892;6.148;2023-03-01T17:36:37;7.30;99.90
52435;DHT22;38354;52.892;6.148;2023-03-01T17:39:12;7.30;99.90
52435;DHT22;38354;52.892;6.148;2023-03-01T17:41:37;7.20;99.90
52435;DHT22;38354;52.892;6.148;2023-03-01T17:44:03;7.10;99.90
52435;DHT22;38354;52.892;6.148;2023-03-01T17:46:29;7.00;99.90
52435;DHT22;38354;52.892;6.148;2023-03-01T17:48:55;6.90;99.90
52435;DHT22;38354;52.892;6.148;2023-03-01T17:51:20;6.80;99.90
52435;DHT22;38354;52.892;6.148;2023-03-01T17:53:46;6.70;99.90
52435;DHT22;38354;52.892;6.148;2023-03-01T17:56:12;6.60;99.90
52435;DHT22;38354;52.892;6.148;2023-03-01T17:58:37;6.50;99.90
52435;DHT22;38354;52.892;6.148;2023-03-01T18:01:14;6.50;99.90
52435;DHT22;38354;52.892;6.148;2023-03-01T18:03:40;6.40;99.90
52435;DHT22;38354;52.892;6.148;2023-03-01T18:06:15;6.30;99.90
52435;DHT22;38354;52.892;6.148;2023-03-01T18:08:41;6.30;99.90
52435;DHT22;38354;52.892;6.148;2023-03-01T18:11:07;6.20;99.90
52435;DHT22;38354;52.892;6.148;2023-03-01T18:13:34;6.20;99.90
52435;DHT22;38354;52.892;6.148;2023-03-01T18:16:07;6.10;99.90
52435;DHT22;38354;52.892;6.148;2023-03-01T18:18:34;6.00;99.90
52435;DHT22;38354;52.892;6.148;2023-03-01T18:21:00;6.00;99.90
52435;DHT22;38354;52.892;6.148;2023-03-01T18:23:26;5.90;99.90
52435;DHT22;38354;52.892;6.148;2023-03-01T18:26:15;6.00;99.90
52435;DHT22;38354;52.892;6.148;2023-03-01T18:28:42;5.90;99.90
52435;DHT22;38354;52.892;6.148;2023-03-01T18:31:12;5.80;99.90
52435;DHT22;38354;52.892;6.148;2023-03-01T18:33:38;5.70;99.90
52435;DHT22;38354;52.892;6.148;2023-03-01T18:36:12;5.60;99.90
52435;DHT22;38354;52.892;6.148;2023-03-01T18:38:40;5.60;99.90
52435;DHT22;38354;52.892;6.148;2023-03-01T18:41:05;5.60;99.90
52435;DHT22;38354;52.892;6.148;2023-03-01T18:43:31;5.50;99.90
52435;DHT22;38354;52.892;6.148;2023-03-01T18:45:57;5.40;99.90
52435;DHT22;38354;52.892;6.148;2023-03-01T18:48:23;5.40;99.90
52435;DHT22;38354;52.892;6.148;2023-03-01T18:50:49;5.30;99.90
52435;DHT22;38354;52.892;6.148;2023-03-01T18:53:14;5.20;99.90
52435;DHT22;38354;52.892;6.148;2023-03-01T18:55:40;5.20;99.90
52435;DHT22;38354;52.892;6.148;2023-03-01T18:58:06;5.10;99.90
52435;DHT22;38354;52.892;6.148;2023-03-01T19:00:32;5.10;99.90
52435;DHT22;38354;52.892;6.148;2023-03-01T19:02:59;5.00;99.90
52435;DHT22;38354;52.892;6.148;2023-03-01T19:05:26;5.10;99.90
52435;DHT22;38354;52.892;6.148;2023-03-01T19:07:52;5.00;99.90
52435;DHT22;38354;52.892;6.148;2023-03-01T19:10:18;5.00;99.90
52435;DHT22;38354;52.892;6.148;2023-03-01T19:12:44;4.90;99.90
52435;DHT22;38354;52.892;6.148;2023-03-01T19:15:10;4.90;99.90
52435;DHT22;38354;52.892;6.148;2023-03-01T19:17:35;4.90;99.90
52435;DHT22;38354;52.892;6.148;2023-03-01T19:20:01;4.80;99.90
52435;DHT22;38354;52.892;6.148;2023-03-01T19:22:27;4.70;99.90
52435;DHT22;38354;52.892;6.148;2023-03-01T19:24:52;4.70;99.90
52435;DHT22;38354;52.892;6.148;2023-03-01T19:27:19;4.60;99.90
52435;DHT22;38354;52.892;6.148;2023-03-01T19:29:44;4.60;99.90
52435;DHT22;38354;52.892;6.148;2023-03-01T19:32:10;4.60;99.90
52435;DHT22;38354;52.892;6.148;2023-03-01T19:34:35;4.60;99.90
52435;DHT22;38354;52.892;6.148;2023-03-01T19:37:03;4.50;99.90
52435;DHT22;38354;52.892;6.148;2023-03-01T19:39:29;4.50;99.90
52435;DHT22;38354;52.892;6.148;2023-03-01T19:41:54;4.50;99.90
52435;DHT22;38354;52.892;6.148;2023-03-01T19:44:21;4.50;99.90
52435;DHT22;38354;52.892;6.148;2023-03-01T19:46:53;4.30;99.90
52435;DHT22;38354;52.892;6.148;2023-03-01T19:49:18;4.30;99.90
52435;DHT22;38354;52.892;6.148;2023-03-01T19:51:44;4.20;99.90
52435;DHT22;38354;52.892;6.148;2023-03-01T19:54:10;4.20;99.90
52435;DHT22;38354;52.892;6.148;2023-03-01T19:56:37;4.20;99.90
52435;DHT22;38354;52.892;6.148;2023-03-01T19:59:04;4.20;99.90
52435;DHT22;38354;52.892;6.148;2023-03-01T20:01:32;4.20;99.90
52435;DHT22;38354;52.892;6.148;2023-03-01T20:03:59;4.10;99.90
52435;DHT22;38354;52.892;6.148;2023-03-01T20:06:25;4.10;99.90
52435;DHT22;38354;52.892;6.148;2023-03-01T20:08:51;4.00;99.90
52435;DHT22;38354;52.892;6.148;2023-03-01T20:11:18;4.00;99.90
52435;DHT22;38354;52.892;6.148;2023-03-01T20:13:44;4.00;99.90
52435;DHT22;38354;52.892;6.148;2023-03-01T20:16:14;3.90;99.90
52435;DHT22;38354;52.892;6.148;2023-03-01T20:18:40;3.90;99.90
52435;DHT22;38354;52.892;6.148;2023-03-01T20:21:05;3.90;99.90
52435;DHT22;38354;52.892;6.148;2023-03-01T20:23:33;3.80;99.90
52435;DHT22;38354;52.892;6.148;2023-03-01T20:26:10;3.80;99.90
52435;DHT22;38354;52.892;6.148;2023-03-01T20:28:44;3.70;99.90
52435;DHT22;38354;52.892;6.148;2023-03-01T20:31:13;3.70;99.90
52435;DHT22;38354;52.892;6.148;2023-03-01T20:33:39;3.70;99.90
52435;DHT22;38354;52.892;6.148;2023-03-01T20:36:06;3.60;99.90
52435;DHT22;38354;52.892;6.148;2023-03-01T20:38:32;3.50;99.90
52435;DHT22;38354;52.892;6.148;2023-03-01T20:41:04;3.50;99.90
52435;DHT22;38354;52.892;6.148;2023-03-01T20:43:30;3.40;99.90
52435;DHT22;38354;52.892;6.148;2023-03-01T20:45:57;3.50;99.90
52435;DHT22;38354;52.892;6.148;2023-03-01T20:48:23;3.50;99.90
52435;DHT22;38354;52.892;6.148;2023-03-01T20:50:49;3.50;99.90
52435;DHT22;38354;52.892;6.148;2023-03-01T20:53:14;3.50;99.90
52435;DHT22;38354;52.892;6.148;2023-03-01T20:55:40;3.50;99.90
52435;DHT22;38354;52.892;6.148;2023-03-01T20:58:06;3.60;99.90
52435;DHT22;38354;52.892;6.148;2023-03-01T21:00:31;3.60;99.90
52435;DHT22;38354;52.892;6.148;2023-03-01T21:02:57;3.60;99.90
52435;DHT22;38354;52.892;6.148;2023-03-01T21:05:25;3.70;99.90
52435;DHT22;38354;52.892;6.148;2023-03-01T21:07:51;3.70;99.90
52435;DHT22;38354;52.892;6.148;2023-03-01T21:10:17;3.80;99.90
52435;DHT22;38354;52.892;6.148;2023-03-01T21:12:42;3.80;99.90
52435;DHT22;38354;52.892;6.148;2023-03-01T21:15:08;3.80;99.90
52435;DHT22;38354;52.892;6.148;2023-03-01T21:17:34;3.80;99.90
52435;DHT22;38354;52.892;6.148;2023-03-01T21:19:59;3.80;99.90
52435;DHT22;38354;52.892;6.148;2023-03-01T21:22:25;3.80;99.90
52435;DHT22;38354;52.892;6.148;2023-03-01T21:24:51;3.80;99.90